createdAt,value
2018-11-22T00:00:30.608Z,1.80
2018-11-22T00:03:11.804Z,1.80
2018-11-22T00:05:52.948Z,1.80
2018-11-22T00:08:21.448Z,1.80
2018-11-22T00:11:09.239Z,1.90
2018-11-22T00:13:49.816Z,1.90
2018-11-22T00:16:30.134Z,1.80
2018-11-22T00:19:11.000Z,1.80
2018-11-22T00:21:51.710Z,1.90
2018-11-22T00:24:32.340Z,1.90
2018-11-22T00:27:13.198Z,1.80
2018-11-22T00:29:53.503Z,1.90
2018-11-22T00:32:32.412Z,1.90
2018-11-22T00:35:14.642Z,1.90
2018-11-22T00:37:55.551Z,1.80
2018-11-22T00:40:34.371Z,1.90
2018-11-22T00:43:15.287Z,1.80
2018-11-22T00:45:43.707Z,1.80
2018-11-22T00:48:31.487Z,1.90
2018-11-22T00:51:19.259Z,1.80
2018-11-22T00:54:00.358Z,1.90
2018-11-22T00:56:41.387Z,1.80
2018-11-22T00:59:22.067Z,1.80
2018-11-22T01:02:02.988Z,1.80
2018-11-22T01:04:44.051Z,1.80
2018-11-22T01:07:24.419Z,1.80
2018-11-22T01:10:04.947Z,1.80
2018-11-22T01:12:46.455Z,1.90
2018-11-22T01:15:26.842Z,1.80
2018-11-22T01:20:45.854Z,1.80
2018-11-22T01:23:24.702Z,1.90
2018-11-22T01:26:12.516Z,1.80
2018-11-22T01:28:40.944Z,1.90
2018-11-22T01:31:28.699Z,1.80
2018-11-22T01:34:09.766Z,1.90
2018-11-22T01:36:50.755Z,1.80
2018-11-22T01:39:31.570Z,1.90
2018-11-22T01:42:10.518Z,1.80
2018-11-22T01:44:38.942Z,1.90
2018-11-22T01:47:26.719Z,1.90
2018-11-22T01:50:15.454Z,1.90
2018-11-22T01:52:43.986Z,1.90
2018-11-22T01:55:31.750Z,2.00
2018-11-22T01:58:00.174Z,1.80
2018-11-22T02:00:47.946Z,1.80
2018-11-22T02:03:35.715Z,1.80
2018-11-22T02:06:16.526Z,1.80
2018-11-22T02:08:56.938Z,1.90
2018-11-22T02:11:38.637Z,1.90
2018-11-22T02:14:19.227Z,1.90
2018-11-22T02:16:59.934Z,1.90
2018-11-22T02:19:41.006Z,1.80
2018-11-22T02:22:21.954Z,1.90
2018-11-22T02:25:02.258Z,1.90
2018-11-22T02:27:42.643Z,1.90
2018-11-22T02:30:22.923Z,1.80
2018-11-22T02:33:10.831Z,1.90
2018-11-22T02:35:51.734Z,1.80
2018-11-22T02:38:33.029Z,1.80
2018-11-22T02:41:14.170Z,1.90
2018-11-22T02:43:55.322Z,1.80
2018-11-22T02:46:35.977Z,1.90
2018-11-22T02:49:17.154Z,1.80
2018-11-22T02:51:57.693Z,1.90
2018-11-22T02:54:38.206Z,1.90
2018-11-22T02:57:18.656Z,1.80
2018-11-22T02:59:59.614Z,1.90
2018-11-22T03:02:40.966Z,1.80
2018-11-22T03:05:22.057Z,1.90
2018-11-22T03:08:03.249Z,1.90
2018-11-22T03:10:44.213Z,1.80
2018-11-22T03:13:25.255Z,1.80
2018-11-22T03:16:06.203Z,1.80
2018-11-22T03:18:46.677Z,1.80
2018-11-22T03:21:15.082Z,1.80
2018-11-22T03:24:02.852Z,1.90
2018-11-22T03:26:41.721Z,1.80
2018-11-22T03:29:29.538Z,1.80
2018-11-22T03:32:10.328Z,1.90
2018-11-22T03:34:51.149Z,1.80
2018-11-22T03:37:32.409Z,1.80
2018-11-22T03:40:15.676Z,1.80
2018-11-22T03:42:56.833Z,1.80
2018-11-22T03:45:35.709Z,1.80
2018-11-22T03:48:23.514Z,1.80
2018-11-22T03:51:04.652Z,1.80
2018-11-22T03:53:45.744Z,1.80
2018-11-22T03:56:26.565Z,1.80
2018-11-22T03:59:07.200Z,1.80
2018-11-22T04:01:47.616Z,1.80
2018-11-22T04:04:27.864Z,1.80
2018-11-22T04:07:08.252Z,1.80
2018-11-22T04:09:36.672Z,1.80
2018-11-22T04:12:24.440Z,1.80
2018-11-22T04:15:12.634Z,1.80
2018-11-22T04:17:53.069Z,1.80
2018-11-22T04:20:33.021Z,1.80
2018-11-22T04:23:13.887Z,1.80
2018-11-22T04:25:55.021Z,1.80
2018-11-22T04:28:35.692Z,1.80
2018-11-22T04:31:16.614Z,1.80
2018-11-22T04:33:57.108Z,1.80
2018-11-22T04:36:38.232Z,1.80
2018-11-22T04:39:19.180Z,1.70
2018-11-22T04:42:00.360Z,1.80
2018-11-22T04:44:40.660Z,1.80
2018-11-22T04:47:21.556Z,1.70
2018-11-22T04:50:02.752Z,1.70
2018-11-22T04:52:43.452Z,1.80
2018-11-22T04:55:24.441Z,1.80
2018-11-22T04:58:04.804Z,1.70
2018-11-22T05:00:45.468Z,1.80
2018-11-22T05:03:24.287Z,1.70
2018-11-22T05:06:12.111Z,1.80
2018-11-22T05:08:53.051Z,1.70
2018-11-22T05:11:31.914Z,1.80
2018-11-22T05:14:19.891Z,1.80
2018-11-22T05:17:01.131Z,1.80
2018-11-22T05:19:41.519Z,1.80
2018-11-22T05:22:22.343Z,1.80
2018-11-22T05:25:02.791Z,1.80
2018-11-22T05:27:43.959Z,1.80
2018-11-22T05:30:14.903Z,1.80
2018-11-22T05:33:02.683Z,1.80
2018-11-22T05:35:43.883Z,1.80
2018-11-22T05:38:24.215Z,1.80
2018-11-22T05:41:04.950Z,1.80
2018-11-22T05:43:45.364Z,1.80
2018-11-22T05:46:25.650Z,1.80
2018-11-22T05:48:54.078Z,1.80
2018-11-22T05:51:41.854Z,1.80
2018-11-22T05:54:29.686Z,1.80
2018-11-22T05:57:09.959Z,1.80
2018-11-22T05:59:38.411Z,1.80
2018-11-22T06:02:26.187Z,1.90
2018-11-22T06:05:06.974Z,1.80
2018-11-22T06:10:36.963Z,1.80
2018-11-22T06:13:17.962Z,1.80
2018-11-22T06:15:58.570Z,1.80
2018-11-22T06:18:39.230Z,1.80
2018-11-22T06:21:20.158Z,1.80
2018-11-22T06:24:00.813Z,1.80
2018-11-22T06:26:42.111Z,1.80
2018-11-22T06:29:23.194Z,1.80
2018-11-22T06:32:02.166Z,1.80
2018-11-22T06:34:42.942Z,1.80
2018-11-22T06:37:23.890Z,1.80
2018-11-22T06:40:02.737Z,1.90
2018-11-22T06:42:51.705Z,1.90
2018-11-22T06:45:33.313Z,1.90
2018-11-22T06:48:14.158Z,1.90
2018-11-22T06:50:53.972Z,1.90
2018-11-22T06:53:40.861Z,1.80
2018-11-22T06:56:21.465Z,1.90
2018-11-22T06:59:02.274Z,1.90
2018-11-22T07:01:43.002Z,1.90
2018-11-22T07:04:23.657Z,1.90
2018-11-22T07:07:03.985Z,1.90
2018-11-22T07:09:44.301Z,1.90
2018-11-22T07:12:12.717Z,1.90
2018-11-22T07:15:00.502Z,1.90
2018-11-22T07:17:41.217Z,1.90
2018-11-22T07:20:24.573Z,1.90
2018-11-22T07:23:05.638Z,2.00
2018-11-22T07:25:46.013Z,1.90
2018-11-22T07:28:24.929Z,2.00
2018-11-22T07:30:53.309Z,2.00
2018-11-22T07:33:41.084Z,2.00
2018-11-22T07:36:21.589Z,2.00
2018-11-22T07:39:03.505Z,2.00
2018-11-22T07:41:31.900Z,2.00
2018-11-22T07:44:19.684Z,2.10
2018-11-22T07:47:07.485Z,2.10
2018-11-22T07:49:48.570Z,2.10
2018-11-22T07:52:29.664Z,2.10
2018-11-22T07:54:58.036Z,2.10
2018-11-22T07:57:45.813Z,2.10
2018-11-22T08:00:35.112Z,2.10
2018-11-22T08:03:15.700Z,2.10
2018-11-22T08:05:56.524Z,2.20
2018-11-22T08:08:35.344Z,2.20
2018-11-22T08:11:23.128Z,2.20
2018-11-22T08:14:04.372Z,2.20
2018-11-22T08:16:45.400Z,2.20
2018-11-22T08:19:25.824Z,2.20
2018-11-22T08:22:06.208Z,2.20
2018-11-22T08:24:46.847Z,2.30
2018-11-22T08:27:15.323Z,2.30
2018-11-22T08:30:03.108Z,2.30
2018-11-22T08:32:43.531Z,2.30
2018-11-22T08:35:24.272Z,2.30
2018-11-22T08:38:05.151Z,2.40
2018-11-22T08:40:45.915Z,2.40
2018-11-22T08:43:26.707Z,2.40
2018-11-22T08:46:07.828Z,2.40
2018-11-22T08:48:36.255Z,2.40
2018-11-22T08:51:24.043Z,2.50
2018-11-22T08:54:04.878Z,2.50
2018-11-22T08:56:45.483Z,2.50
2018-11-22T08:59:13.871Z,2.50
2018-11-22T09:02:01.642Z,2.50
2018-11-22T09:04:49.468Z,2.60
2018-11-22T09:07:30.070Z,2.50
2018-11-22T09:10:10.502Z,2.60
2018-11-22T09:12:51.834Z,2.50
2018-11-22T09:15:33.262Z,2.50
2018-11-22T09:18:13.992Z,2.50
2018-11-22T09:20:54.464Z,2.60
2018-11-22T09:23:38.457Z,2.60
2018-11-22T09:26:15.094Z,2.60
2018-11-22T09:31:43.525Z,2.60
2018-11-22T09:34:24.256Z,2.60
2018-11-22T09:37:04.879Z,2.60
2018-11-22T09:39:45.536Z,2.60
2018-11-22T09:42:26.604Z,2.60
2018-11-22T09:45:07.623Z,2.60
2018-11-22T09:47:48.600Z,2.60
2018-11-22T09:50:30.185Z,2.70
2018-11-22T09:53:11.658Z,2.70
2018-11-22T09:55:52.177Z,2.70
2018-11-22T09:58:33.058Z,2.70
2018-11-22T10:01:14.165Z,2.70
2018-11-22T10:03:42.533Z,2.70
2018-11-22T10:06:30.299Z,2.70
2018-11-22T10:09:18.185Z,2.70
2018-11-22T10:11:58.608Z,2.70
2018-11-22T10:14:39.309Z,2.70
2018-11-22T10:17:07.749Z,2.70
2018-11-22T10:19:55.485Z,2.70
2018-11-22T10:22:44.079Z,2.70
2018-11-22T10:25:24.765Z,2.70
2018-11-22T10:28:05.737Z,2.70
2018-11-22T10:30:46.361Z,2.70
2018-11-22T10:33:26.653Z,2.70
2018-11-22T10:36:07.373Z,2.70
2018-11-22T10:38:48.170Z,2.70
2018-11-22T10:41:28.489Z,2.80
2018-11-22T10:44:07.502Z,2.80
2018-11-22T10:46:48.066Z,2.80
2018-11-22T10:49:29.406Z,2.80
2018-11-22T10:52:10.206Z,2.80
2018-11-22T10:54:51.346Z,2.70
2018-11-22T10:57:32.426Z,2.70
2018-11-22T11:00:31.958Z,2.80
2018-11-22T11:03:38.998Z,2.80
2018-11-22T11:06:38.857Z,2.80
2018-11-22T11:09:19.313Z,2.80
2018-11-22T11:12:00.426Z,2.80
2018-11-22T11:14:40.774Z,2.80
2018-11-22T11:17:21.174Z,2.80
2018-11-22T11:19:49.582Z,2.80
2018-11-22T11:22:37.474Z,2.80
2018-11-22T11:25:07.330Z,2.70
2018-11-22T11:27:35.917Z,2.80
2018-11-22T11:30:23.705Z,2.80
2018-11-22T11:33:11.475Z,2.80
2018-11-22T11:35:39.879Z,2.80
2018-11-22T11:38:27.658Z,2.70
2018-11-22T11:41:08.410Z,2.70
2018-11-22T11:43:49.053Z,2.70
2018-11-22T11:46:29.705Z,2.70
2018-11-22T11:49:10.033Z,2.70
2018-11-22T11:51:48.886Z,2.70
2018-11-22T11:54:29.309Z,2.70
2018-11-22T11:57:10.121Z,2.70
2018-11-22T11:59:50.963Z,2.70
2018-11-22T12:02:31.525Z,2.70
2018-11-22T12:04:59.949Z,2.70
2018-11-22T12:07:47.778Z,2.70
2018-11-22T12:10:28.617Z,2.70
2018-11-22T12:13:09.726Z,2.70
2018-11-22T12:18:32.511Z,2.70
2018-11-22T12:20:58.407Z,2.70
2018-11-22T12:23:46.258Z,2.70
2018-11-22T12:26:34.110Z,2.70
2018-11-22T12:29:02.534Z,2.70
2018-11-22T12:31:50.394Z,2.70
2018-11-22T12:34:57.395Z,2.70
2018-11-22T12:37:43.288Z,2.70
2018-11-22T12:40:27.610Z,2.70
2018-11-22T12:43:15.453Z,2.60
2018-11-22T12:45:55.834Z,2.70
2018-11-22T12:48:36.521Z,2.60
2018-11-22T12:51:16.914Z,2.60
2018-11-22T12:53:58.091Z,2.60
2018-11-22T12:56:39.198Z,2.60
2018-11-22T12:59:19.909Z,2.60
2018-11-22T13:04:48.545Z,2.60
2018-11-22T13:07:29.062Z,2.70
2018-11-22T13:10:11.237Z,2.60
2018-11-22T13:12:51.978Z,2.60
2018-11-22T13:15:32.986Z,2.60
2018-11-22T13:18:14.006Z,2.70
2018-11-22T13:20:53.041Z,2.60
2018-11-22T13:23:21.513Z,2.60
2018-11-22T13:26:09.349Z,2.60
2018-11-22T13:28:50.137Z,2.60
2018-11-22T13:31:31.178Z,2.60
2018-11-22T13:33:59.593Z,2.60
2018-11-22T13:36:47.433Z,2.50
2018-11-22T13:39:35.273Z,2.50
2018-11-22T13:42:16.438Z,2.50
2018-11-22T13:44:56.960Z,2.50
2018-11-22T13:47:39.845Z,2.50
2018-11-22T13:50:21.973Z,2.50
2018-11-22T13:53:04.509Z,2.50
2018-11-22T13:55:45.345Z,2.50
2018-11-22T13:58:26.502Z,2.50
2018-11-22T14:01:07.101Z,2.50
2018-11-22T14:03:48.173Z,2.50
2018-11-22T14:06:16.690Z,2.50
2018-11-22T14:09:05.878Z,2.50
2018-11-22T14:17:12.213Z,2.60
2018-11-22T14:19:40.705Z,2.50
2018-11-22T14:22:28.545Z,2.50
2018-11-22T14:25:16.945Z,2.50
2018-11-22T14:27:58.175Z,2.50
2018-11-22T14:30:39.221Z,2.40
2018-11-22T14:33:19.625Z,2.40
2018-11-22T14:35:58.629Z,2.40
2018-11-22T14:38:46.477Z,2.40
2018-11-22T14:41:27.520Z,2.40
2018-11-22T14:44:08.745Z,2.40
2018-11-22T14:46:49.945Z,2.40
2018-11-22T14:49:30.984Z,2.40
2018-11-22T14:51:59.528Z,2.40
2018-11-22T14:54:47.372Z,2.40
2018-11-22T14:57:35.404Z,2.40
2018-11-22T15:00:16.808Z,2.40
2018-11-22T15:02:57.872Z,2.40
2018-11-22T15:05:39.088Z,2.40
2018-11-22T15:08:19.352Z,2.30
2018-11-22T15:11:00.056Z,2.30
2018-11-22T15:13:40.998Z,2.30
2018-11-22T15:16:09.542Z,2.30
2018-11-22T15:18:57.382Z,2.40
2018-11-22T15:21:37.778Z,2.30
2018-11-22T15:24:18.923Z,2.30
2018-11-22T15:26:59.442Z,2.30
2018-11-22T15:29:40.298Z,2.30
2018-11-22T15:32:20.814Z,2.30
2018-11-22T15:35:01.282Z,2.30
2018-11-22T15:37:42.334Z,2.30
2018-11-22T15:40:22.566Z,2.30
2018-11-22T15:43:10.472Z,2.30
2018-11-22T15:45:51.373Z,2.30
2018-11-22T15:48:32.246Z,2.30
2018-11-22T15:51:12.909Z,2.20
2018-11-22T15:53:51.797Z,2.20
2018-11-22T15:56:39.676Z,2.20
2018-11-22T15:59:20.013Z,2.20
2018-11-22T16:02:01.269Z,2.20
2018-11-22T16:04:42.430Z,2.20
2018-11-22T16:07:23.581Z,2.20
2018-11-22T16:10:04.493Z,2.20
2018-11-22T16:12:45.941Z,2.20
2018-11-22T16:15:35.630Z,2.20
2018-11-22T16:18:16.748Z,2.20
2018-11-22T16:20:58.037Z,2.20
2018-11-22T16:23:38.776Z,2.10
2018-11-22T16:26:17.745Z,2.20
2018-11-22T16:29:05.769Z,2.20
2018-11-22T16:31:46.112Z,2.10
2018-11-22T16:34:27.196Z,2.10
2018-11-22T16:37:08.476Z,2.10
2018-11-22T16:39:47.873Z,2.20
2018-11-22T16:42:35.380Z,2.10
2018-11-22T16:45:41.047Z,2.10
2018-11-22T16:48:21.437Z,2.10
2018-11-22T16:51:02.308Z,2.10
2018-11-22T16:53:43.381Z,2.10
2018-11-22T16:56:11.892Z,2.10
2018-11-22T16:58:59.783Z,2.10
2018-11-22T17:01:28.255Z,2.10
2018-11-22T17:04:16.107Z,2.10
2018-11-22T17:07:03.968Z,2.10
2018-11-22T17:09:45.047Z,2.10
2018-11-22T17:12:26.247Z,2.10
2018-11-22T17:15:06.815Z,2.10
2018-11-22T17:17:49.010Z,2.10
2018-11-22T17:20:28.998Z,2.10
2018-11-22T17:23:16.875Z,2.10
2018-11-22T17:25:58.018Z,2.10
2018-11-22T17:28:36.986Z,2.10
2018-11-22T17:31:24.879Z,2.10
2018-11-22T17:34:06.064Z,2.10
2018-11-22T17:36:47.290Z,2.10
2018-11-22T17:39:31.580Z,2.10
2018-11-22T17:42:11.939Z,2.00
2018-11-22T17:44:48.615Z,2.10
2018-11-22T17:47:29.593Z,2.00
2018-11-22T17:50:10.728Z,2.00
2018-11-22T17:52:51.302Z,2.00
2018-11-22T17:55:32.477Z,2.00
2018-11-22T17:58:13.955Z,2.00
2018-11-22T18:00:54.710Z,2.00
2018-11-22T18:03:35.737Z,2.00
2018-11-22T18:06:16.893Z,1.90
2018-11-22T18:08:57.757Z,1.90
2018-11-22T18:11:38.646Z,1.90
2018-11-22T18:14:19.745Z,1.90
2018-11-22T18:17:00.866Z,1.90
2018-11-22T18:19:39.846Z,1.90
2018-11-22T18:22:27.722Z,1.90
2018-11-22T18:25:08.585Z,1.90
2018-11-22T18:27:49.594Z,1.90
2018-11-22T18:30:31.838Z,1.90
2018-11-22T18:33:12.770Z,1.90
2018-11-22T18:35:53.973Z,1.90
2018-11-22T18:38:35.249Z,1.90
2018-11-22T18:41:16.473Z,1.90
2018-11-22T18:43:57.565Z,1.90
2018-11-22T18:46:37.940Z,1.90
2018-11-22T18:49:19.081Z,1.90
2018-11-22T18:51:47.561Z,1.90
2018-11-22T18:54:35.409Z,1.90
2018-11-22T18:57:23.268Z,1.90
2018-11-22T19:00:04.589Z,1.90
2018-11-22T19:02:45.677Z,1.90
2018-11-22T19:05:26.345Z,1.80
2018-11-22T19:08:07.524Z,1.80
2018-11-22T19:10:48.196Z,1.80
2018-11-22T19:13:29.113Z,1.90
2018-11-22T19:16:12.061Z,1.80
2018-11-22T19:18:52.544Z,1.80
2018-11-22T19:21:33.617Z,1.80
2018-11-22T19:24:14.601Z,1.80
2018-11-22T19:26:55.340Z,1.80
2018-11-22T19:29:35.960Z,1.80
2018-11-22T19:32:17.624Z,1.80
2018-11-22T19:34:58.425Z,1.80
2018-11-22T19:37:37.513Z,1.80
2018-11-22T19:40:26.620Z,1.80
2018-11-22T19:43:08.308Z,1.80
2018-11-22T19:45:49.615Z,1.80
2018-11-22T19:48:30.285Z,1.80
2018-11-22T19:51:11.693Z,1.80
2018-11-22T19:53:50.752Z,1.80
2018-11-22T19:56:31.732Z,1.80
2018-11-22T19:59:12.948Z,1.80
2018-11-22T20:01:53.509Z,1.80
2018-11-22T20:04:34.636Z,1.80
2018-11-22T20:07:15.184Z,1.80
2018-11-22T20:09:55.631Z,1.80
2018-11-22T20:12:36.116Z,1.80
2018-11-22T20:15:16.838Z,1.80
2018-11-22T20:17:57.717Z,1.80
2018-11-22T20:20:38.907Z,1.70
2018-11-22T20:23:21.921Z,1.70
2018-11-22T20:26:00.504Z,1.80
2018-11-22T20:28:40.999Z,1.70
2018-11-22T20:31:21.840Z,1.70
2018-11-22T20:34:02.976Z,1.70
2018-11-22T20:36:44.204Z,1.70
2018-11-22T20:39:25.339Z,1.70
2018-11-22T20:42:05.776Z,1.60
2018-11-22T20:44:46.975Z,1.60
2018-11-22T20:47:27.955Z,1.60
2018-11-22T20:50:09.067Z,1.60
2018-11-22T20:52:48.000Z,1.60
2018-11-22T20:55:37.263Z,1.50
2018-11-22T20:58:06.523Z,1.60
2018-11-22T21:00:54.367Z,1.60
2018-11-22T21:03:42.231Z,1.60
2018-11-22T21:06:22.911Z,1.60
2018-11-22T21:09:04.768Z,1.60
2018-11-22T21:11:45.551Z,1.60
2018-11-22T21:14:26.055Z,1.60
2018-11-22T21:17:07.032Z,1.60
2018-11-22T21:19:47.511Z,1.60
2018-11-22T21:22:28.182Z,1.70
2018-11-22T21:25:07.931Z,1.70
2018-11-22T21:27:48.775Z,1.60
2018-11-22T21:30:33.895Z,1.70
2018-11-22T21:33:14.239Z,1.70
2018-11-22T21:35:55.079Z,1.60
2018-11-22T21:38:36.247Z,1.70
2018-11-22T21:41:17.324Z,1.70
2018-11-22T21:44:25.650Z,1.70
2018-11-22T21:46:54.310Z,1.70
2018-11-22T21:49:22.931Z,1.70
2018-11-22T21:51:51.547Z,1.70
2018-11-22T21:54:20.226Z,1.70
2018-11-22T21:56:48.846Z,1.70
2018-11-22T21:59:17.488Z,1.70
2018-11-22T22:01:46.239Z,1.70
2018-11-22T22:04:15.138Z,1.70
2018-11-22T22:06:43.830Z,1.70
2018-11-22T22:09:12.470Z,1.70
2018-11-22T22:11:41.102Z,1.70
2018-11-22T22:14:09.741Z,1.70
2018-11-22T22:16:38.474Z,1.70
2018-11-22T22:19:07.090Z,1.70
2018-11-22T22:21:35.715Z,1.70
2018-11-22T22:24:04.353Z,1.70
2018-11-22T22:26:33.558Z,1.70
2018-11-22T22:29:02.265Z,1.60
2018-11-22T22:31:30.897Z,1.60
2018-11-22T22:33:59.554Z,1.50
2018-11-22T22:36:28.222Z,1.50
2018-11-22T22:38:56.842Z,1.50
2018-11-22T22:41:25.442Z,1.50
2018-11-22T22:43:54.065Z,1.50
2018-11-22T22:46:22.682Z,1.50
2018-11-22T22:48:51.281Z,1.60
2018-11-22T22:51:23.465Z,1.60
2018-11-22T22:53:52.086Z,1.60
2018-11-22T22:56:21.385Z,1.50
2018-11-22T22:58:49.989Z,1.50
2018-11-22T23:01:18.597Z,1.50
2018-11-22T23:03:47.281Z,1.50
2018-11-22T23:06:45.389Z,1.50
2018-11-22T23:09:14.101Z,1.50
2018-11-22T23:11:42.726Z,1.50
2018-11-22T23:14:11.313Z,1.50
2018-11-22T23:16:56.511Z,1.50
2018-11-22T23:19:25.137Z,1.50
2018-11-22T23:21:53.777Z,1.60
2018-11-22T23:24:22.421Z,1.50
2018-11-22T23:26:51.097Z,1.60
2018-11-22T23:29:19.813Z,1.60
2018-11-22T23:31:48.433Z,1.60
2018-11-22T23:34:17.026Z,1.60
2018-11-22T23:36:45.629Z,1.60
2018-11-22T23:39:14.305Z,1.60
2018-11-22T23:41:42.929Z,1.60
2018-11-22T23:44:11.573Z,1.60
2018-11-22T23:46:40.226Z,1.60
2018-11-22T23:49:08.840Z,1.60
2018-11-22T23:51:37.477Z,1.60
2018-11-22T23:54:06.152Z,1.60
2018-11-22T23:56:34.760Z,1.60
2018-11-22T23:59:03.408Z,1.60
